Pililaau — NBWY — position and weather

sailwx.info

Track history (hours):
 
Tides and Currents Weather Stations Pressure Air Temp Water Temp Dewpoint Dewpoint Depression Visibility Wind Speed Wind Dir Waves Ship Positions

Pililaau

Last reported at 2015-May-12 11:10 UTC. Time now 2015-May-22 17:42 UTC.
Position N 09°20' E 124°20'.
Warning: this ship's position is 10 days out of date.

Type: Cargo ship. MMSI: 338806000.

Date/timePositionNaut miles runAvg speedWind from/ knotsBaromVisibWave heightAir tempDewpointWater temp
2015-May-12 11:10N 09°20' E 124°20'6 9.3
2015-May-12 10:32N 09°17' E 124°15'1010.0
2015-May-12 09:33N 09°12' E 124°07'1010.0
2015-May-12 08:33N 09°07' E 123°58'10 9.6
2015-May-12 07:33N 09°03' E 123°49'10 9.8
2015-May-12 06:34N 09°00' E 123°40'10 9.7
2015-May-12 05:33N 08°58' E 123°30'1010.3
2015-May-12 04:33N 08°56' E 123°20'10 9.9
2015-May-12 03:31N 08°54' E 123°10'11 9.1
2015-May-12 02:17N 08°53' E 122°59'9 9.3
2015-May-12 01:19N 08°55' E 122°50'3910.2
2015-May-11 21:31N 09°05' E 122°12'  
Track history (hours):
 
Tides and Currents Weather Stations Pressure Air Temp Water Temp Dewpoint Dewpoint Depression Visibility Wind Speed Wind Dir Waves Ship Positions

Pililaau

Last reported at 2015-May-12 11:10 UTC. Time now 2015-May-22 17:42 UTC.
Position N 09°20' E 124°20'.
Warning: this ship's position is 10 days out of date.

Type: Cargo ship. MMSI: 338806000.

Date/timePositionNaut miles runAvg speedWind from/ knotsBaromVisibWave heightAir tempDewpointWater temp
2015-May-12 11:10N 09°20' E 124°20'6 9.3
2015-May-12 10:32N 09°17' E 124°15'1010.0
2015-May-12 09:33N 09°12' E 124°07'1010.0
2015-May-12 08:33N 09°07' E 123°58'10 9.6
2015-May-12 07:33N 09°03' E 123°49'10 9.8
2015-May-12 06:34N 09°00' E 123°40'10 9.7
2015-May-12 05:33N 08°58' E 123°30'1010.3
2015-May-12 04:33N 08°56' E 123°20'10 9.9
2015-May-12 03:31N 08°54' E 123°10'11 9.1
2015-May-12 02:17N 08°53' E 122°59'9 9.3
2015-May-12 01:19N 08°55' E 122°50'3910.2
2015-May-11 21:31N 09°05' E 122°12'  

Dump ship's entire track history